sensor_id;sensor_type;location;lat;lon;timestamp;temperature;humidity
47521;DHT22;32291;52.010;4.446;2023-04-15T00:00:58;8.00;99.90
47521;DHT22;32291;52.010;4.446;2023-04-15T00:02:12;8.00;99.90
47521;DHT22;32291;52.010;4.446;2023-04-15T00:03:18;8.00;99.90
47521;DHT22;32291;52.010;4.446;2023-04-15T00:04:20;8.10;99.90
47521;DHT22;32291;52.010;4.446;2023-04-15T00:05:22;8.10;99.90
47521;DHT22;32291;52.010;4.446;2023-04-15T00:06:23;8.10;99.90
47521;DHT22;32291;52.010;4.446;2023-04-15T00:07:25;8.10;99.90
47521;DHT22;32291;52.010;4.446;2023-04-15T00:08:28;8.10;99.90
47521;DHT22;32291;52.010;4.446;2023-04-15T00:09:30;8.10;99.90
47521;DHT22;32291;52.010;4.446;2023-04-15T00:10:32;8.10;99.90
47521;DHT22;32291;52.010;4.446;2023-04-15T00:11:33;8.10;99.90
47521;DHT22;32291;52.010;4.446;2023-04-15T00:12:35;8.10;99.90
47521;DHT22;32291;52.010;4.446;2023-04-15T00:13:38;8.10;99.90
47521;DHT22;32291;52.010;4.446;2023-04-15T00:14:39;8.10;99.90
47521;DHT22;32291;52.010;4.446;2023-04-15T00:15:41;8.20;99.90
47521;DHT22;32291;52.010;4.446;2023-04-15T00:16:43;8.10;99.90
47521;DHT22;32291;52.010;4.446;2023-04-15T00:17:45;8.10;99.90
47521;DHT22;32291;52.010;4.446;2023-04-15T00:18:47;8.10;99.90
47521;DHT22;32291;52.010;4.446;2023-04-15T00:19:49;8.00;99.90
47521;DHT22;32291;52.010;4.446;2023-04-15T00:20:51;8.00;99.90
47521;DHT22;32291;52.010;4.446;2023-04-15T00:21:53;8.20;99.90
47521;DHT22;32291;52.010;4.446;2023-04-15T00:22:55;8.00;99.90
47521;DHT22;32291;52.010;4.446;2023-04-15T00:23:58;8.00;99.90
47521;DHT22;32291;52.010;4.446;2023-04-15T00:25:01;7.90;99.90
47521;DHT22;32291;52.010;4.446;2023-04-15T00:26:03;7.90;99.90
47521;DHT22;32291;52.010;4.446;2023-04-15T00:27:05;7.90;99.90
47521;DHT22;32291;52.010;4.446;2023-04-15T00:28:07;7.90;99.90
47521;DHT22;32291;52.010;4.446;2023-04-15T00:29:09;7.80;99.90
47521;DHT22;32291;52.010;4.446;2023-04-15T00:30:11;7.80;99.90
47521;DHT22;32291;52.010;4.446;2023-04-15T00:31:14;7.80;99.90
47521;DHT22;32291;52.010;4.446;2023-04-15T00:32:16;7.80;99.90
47521;DHT22;32291;52.010;4.446;2023-04-15T00:33:18;7.80;99.90
47521;DHT22;32291;52.010;4.446;2023-04-15T00:34:20;7.80;99.90
47521;DHT22;32291;52.010;4.446;2023-04-15T00:35:21;7.80;99.90
47521;DHT22;32291;52.010;4.446;2023-04-15T00:36:24;7.80;99.90
47521;DHT22;32291;52.010;4.446;2023-04-15T00:37:26;7.80;99.90
47521;DHT22;32291;52.010;4.446;2023-04-15T00:38:28;7.80;99.90
47521;DHT22;32291;52.010;4.446;2023-04-15T00:39:30;7.80;99.90
47521;DHT22;32291;52.010;4.446;2023-04-15T00:40:32;7.80;99.90
47521;DHT22;32291;52.010;4.446;2023-04-15T00:41:34;7.80;99.90
47521;DHT22;32291;52.010;4.446;2023-04-15T00:42:40;7.80;99.90
47521;DHT22;32291;52.010;4.446;2023-04-15T00:43:42;7.90;99.90
47521;DHT22;32291;52.010;4.446;2023-04-15T00:44:44;7.90;99.90
47521;DHT22;32291;52.010;4.446;2023-04-15T00:45:45;7.90;99.90
47521;DHT22;32291;52.010;4.446;2023-04-15T00:46:50;7.90;99.90
47521;DHT22;32291;52.010;4.446;2023-04-15T00:47:52;7.90;99.90
47521;DHT22;32291;52.010;4.446;2023-04-15T00:48:54;8.00;99.90
47521;DHT22;32291;52.010;4.446;2023-04-15T00:49:57;7.90;99.90
47521;DHT22;32291;52.010;4.446;2023-04-15T00:50:59;7.90;99.90
47521;DHT22;32291;52.010;4.446;2023-04-15T00:52:02;7.90;99.90
47521;DHT22;32291;52.010;4.446;2023-04-15T00:53:04;7.90;99.90
47521;DHT22;32291;52.010;4.446;2023-04-15T00:54:06;7.90;99.90
47521;DHT22;32291;52.010;4.446;2023-04-15T00:55:09;7.80;99.90
47521;DHT22;32291;52.010;4.446;2023-04-15T00:56:11;7.80;99.90
47521;DHT22;32291;52.010;4.446;2023-04-15T00:57:14;7.80;99.90
47521;DHT22;32291;52.010;4.446;2023-04-15T00:58:17;7.80;99.90
47521;DHT22;32291;52.010;4.446;2023-04-15T00:59:19;7.80;99.90
47521;DHT22;32291;52.010;4.446;2023-04-15T01:00:22;7.70;99.90
47521;DHT22;32291;52.010;4.446;2023-04-15T01:01:25;7.70;99.90
47521;DHT22;32291;52.010;4.446;2023-04-15T01:02:27;7.70;99.90
47521;DHT22;32291;52.010;4.446;2023-04-15T01:03:29;7.70;99.90
47521;DHT22;32291;52.010;4.446;2023-04-15T01:04:31;7.60;99.90
47521;DHT22;32291;52.010;4.446;2023-04-15T01:05:35;7.70;99.90
47521;DHT22;32291;52.010;4.446;2023-04-15T01:06:37;7.60;99.90
47521;DHT22;32291;52.010;4.446;2023-04-15T01:07:40;7.60;99.90
47521;DHT22;32291;52.010;4.446;2023-04-15T01:08:42;7.60;99.90
47521;DHT22;32291;52.010;4.446;2023-04-15T01:09:46;7.60;99.90
47521;DHT22;32291;52.010;4.446;2023-04-15T01:10:48;7.50;99.90
47521;DHT22;32291;52.010;4.446;2023-04-15T01:11:51;7.50;99.90
47521;DHT22;32291;52.010;4.446;2023-04-15T01:12:53;7.50;99.90
47521;DHT22;32291;52.010;4.446;2023-04-15T01:13:55;7.50;99.90
47521;DHT22;32291;52.010;4.446;2023-04-15T01:14:59;7.50;99.90
47521;DHT22;32291;52.010;4.446;2023-04-15T01:16:03;7.50;99.90
47521;DHT22;32291;52.010;4.446;2023-04-15T01:17:04;7.40;99.90
47521;DHT22;32291;52.010;4.446;2023-04-15T01:18:07;7.40;99.90
47521;DHT22;32291;52.010;4.446;2023-04-15T01:19:10;7.40;99.90
47521;DHT22;32291;52.010;4.446;2023-04-15T01:20:12;7.40;99.90
47521;DHT22;32291;52.010;4.446;2023-04-15T01:21:16;7.40;99.90
47521;DHT22;32291;52.010;4.446;2023-04-15T01:22:20;7.30;99.90
47521;DHT22;32291;52.010;4.446;2023-04-15T01:23:22;7.30;99.90
47521;DHT22;32291;52.010;4.446;2023-04-15T01:24:25;7.30;99.90
47521;DHT22;32291;52.010;4.446;2023-04-15T01:25:33;7.30;99.90
47521;DHT22;32291;52.010;4.446;2023-04-15T01:26:39;7.30;99.90
47521;DHT22;32291;52.010;4.446;2023-04-15T01:27:41;7.30;99.90
47521;DHT22;32291;52.010;4.446;2023-04-15T01:28:43;7.30;99.90
47521;DHT22;32291;52.010;4.446;2023-04-15T01:29:45;7.30;99.90
47521;DHT22;32291;52.010;4.446;2023-04-15T01:30:47;7.30;99.90
47521;DHT22;32291;52.010;4.446;2023-04-15T01:31:53;7.30;99.90
47521;DHT22;32291;52.010;4.446;2023-04-15T01:32:57;7.30;99.90
47521;DHT22;32291;52.010;4.446;2023-04-15T01:33:59;7.30;99.90
47521;DHT22;32291;52.010;4.446;2023-04-15T01:35:02;7.20;99.90
47521;DHT22;32291;52.010;4.446;2023-04-15T01:36:06;7.20;99.90
47521;DHT22;32291;52.010;4.446;2023-04-15T01:37:09;7.20;99.90
47521;DHT22;32291;52.010;4.446;2023-04-15T01:38:12;7.20;99.90
47521;DHT22;32291;52.010;4.446;2023-04-15T01:39:15;7.40;99.90
47521;DHT22;32291;52.010;4.446;2023-04-15T01:40:18;7.20;99.90
47521;DHT22;32291;52.010;4.446;2023-04-15T01:41:27;7.10;99.90
47521;DHT22;32291;52.010;4.446;2023-04-15T01:42:30;7.10;99.90
47521;DHT22;32291;52.010;4.446;2023-04-15T01:43:31;7.10;99.90
47521;DHT22;32291;52.010;4.446;2023-04-15T01:44:33;7.20;99.90
47521;DHT22;32291;52.010;4.446;2023-04-15T01:45:35;7.10;99.90
47521;DHT22;32291;52.010;4.446;2023-04-15T01:46:37;7.20;99.90
47521;DHT22;32291;52.010;4.446;2023-04-15T01:47:39;7.10;99.90
47521;DHT22;32291;52.010;4.446;2023-04-15T01:48:41;7.10;99.90
47521;DHT22;32291;52.010;4.446;2023-04-15T01:49:43;7.20;99.90
47521;DHT22;32291;52.010;4.446;2023-04-15T01:50:45;7.10;99.90
47521;DHT22;32291;52.010;4.446;2023-04-15T01:51:47;7.10;99.90
47521;DHT22;32291;52.010;4.446;2023-04-15T01:52:49;7.10;99.90
47521;DHT22;32291;52.010;4.446;2023-04-15T01:53:51;7.10;99.90
47521;DHT22;32291;52.010;4.446;2023-04-15T01:54:53;7.10;99.90
47521;DHT22;32291;52.010;4.446;2023-04-15T01:55:55;7.10;99.90
47521;DHT22;32291;52.010;4.446;2023-04-15T01:56:57;7.20;99.90
47521;DHT22;32291;52.010;4.446;2023-04-15T01:57:59;7.10;99.90
47521;DHT22;32291;52.010;4.446;2023-04-15T01:59:02;7.10;99.90
47521;DHT22;32291;52.010;4.446;2023-04-15T02:00:05;7.00;99.90
47521;DHT22;32291;52.010;4.446;2023-04-15T02:01:08;7.00;99.90
47521;DHT22;32291;52.010;4.446;2023-04-15T02:02:11;7.00;99.90
47521;DHT22;32291;52.010;4.446;2023-04-15T02:03:13;7.00;99.90
47521;DHT22;32291;52.010;4.446;2023-04-15T02:04:15;6.90;99.90
47521;DHT22;32291;52.010;4.446;2023-04-15T02:05:17;6.90;99.90
47521;DHT22;32291;52.010;4.446;2023-04-15T02:06:19;6.90;99.90
47521;DHT22;32291;52.010;4.446;2023-04-15T02:07:21;6.90;99.90
47521;DHT22;32291;52.010;4.446;2023-04-15T02:08:24;6.90;99.90
47521;DHT22;32291;52.010;4.446;2023-04-15T02:09:26;6.90;99.90
47521;DHT22;32291;52.010;4.446;2023-04-15T02:10:28;6.90;99.90
47521;DHT22;32291;52.010;4.446;2023-04-15T02:11:29;6.80;99.90
47521;DHT22;32291;52.010;4.446;2023-04-15T02:12:31;6.90;99.90
47521;DHT22;32291;52.010;4.446;2023-04-15T02:13:33;6.90;99.90
47521;DHT22;32291;52.010;4.446;2023-04-15T02:14:35;6.90;99.90
47521;DHT22;32291;52.010;4.446;2023-04-15T02:15:37;6.90;99.90
47521;DHT22;32291;52.010;4.446;2023-04-15T02:16:39;6.90;99.90
47521;DHT22;32291;52.010;4.446;2023-04-15T02:17:41;6.90;99.90
47521;DHT22;32291;52.010;4.446;2023-04-15T02:18:46;6.90;99.90
47521;DHT22;32291;52.010;4.446;2023-04-15T02:19:48;6.80;99.90
47521;DHT22;32291;52.010;4.446;2023-04-15T02:20:51;6.90;99.90
47521;DHT22;32291;52.010;4.446;2023-04-15T02:21:52;6.90;99.90
47521;DHT22;32291;52.010;4.446;2023-04-15T02:22:54;6.90;99.90
47521;DHT22;32291;52.010;4.446;2023-04-15T02:23:57;6.80;99.90
47521;DHT22;32291;52.010;4.446;2023-04-15T02:24:59;6.80;99.90
47521;DHT22;32291;52.010;4.446;2023-04-15T02:26:01;6.90;99.90
47521;DHT22;32291;52.010;4.446;2023-04-15T02:27:03;7.20;99.90
47521;DHT22;32291;52.010;4.446;2023-04-15T02:28:05;6.80;99.90
47521;DHT22;32291;52.010;4.446;2023-04-15T02:29:07;6.90;99.90
47521;DHT22;32291;52.010;4.446;2023-04-15T02:30:10;6.90;99.90
47521;DHT22;32291;52.010;4.446;2023-04-15T02:31:12;6.90;99.90
47521;DHT22;32291;52.010;4.446;2023-04-15T02:32:13;6.90;99.90
47521;DHT22;32291;52.010;4.446;2023-04-15T02:33:15;6.90;99.90
47521;DHT22;32291;52.010;4.446;2023-04-15T02:34:17;6.90;99.90
47521;DHT22;32291;52.010;4.446;2023-04-15T02:35:19;6.90;99.90
47521;DHT22;32291;52.010;4.446;2023-04-15T02:36:22;6.90;99.90
47521;DHT22;32291;52.010;4.446;2023-04-15T02:37:24;6.90;99.90
47521;DHT22;32291;52.010;4.446;2023-04-15T02:38:27;6.90;99.90
47521;DHT22;32291;52.010;4.446;2023-04-15T02:39:29;6.90;99.90
47521;DHT22;32291;52.010;4.446;2023-04-15T02:40:31;6.90;99.90
47521;DHT22;32291;52.010;4.446;2023-04-15T02:41:34;6.90;99.90
47521;DHT22;32291;52.010;4.446;2023-04-15T02:42:36;6.90;99.90
47521;DHT22;32291;52.010;4.446;2023-04-15T02:43:39;6.90;99.90
47521;DHT22;32291;52.010;4.446;2023-04-15T02:44:41;6.90;99.90
47521;DHT22;32291;52.010;4.446;2023-04-15T02:45:44;6.80;99.90
47521;DHT22;32291;52.010;4.446;2023-04-15T02:46:47;6.80;99.90
47521;DHT22;32291;52.010;4.446;2023-04-15T02:47:52;6.80;99.90
47521;DHT22;32291;52.010;4.446;2023-04-15T02:48:55;6.80;99.90
47521;DHT22;32291;52.010;4.446;2023-04-15T02:49:56;6.80;99.90
47521;DHT22;32291;52.010;4.446;2023-04-15T02:51:19;6.80;99.90
47521;DHT22;32291;52.010;4.446;2023-04-15T02:52:23;7.00;99.90
47521;DHT22;32291;52.010;4.446;2023-04-15T02:53:25;6.80;99.90
47521;DHT22;32291;52.010;4.446;2023-04-15T02:54:28;6.80;99.90
47521;DHT22;32291;52.010;4.446;2023-04-15T02:55:30;6.80;99.90
47521;DHT22;32291;52.010;4.446;2023-04-15T02:56:33;6.80;99.90
47521;DHT22;32291;52.010;4.446;2023-04-15T02:57:35;7.00;99.90
47521;DHT22;32291;52.010;4.446;2023-04-15T02:58:42;6.80;99.90
47521;DHT22;32291;52.010;4.446;2023-04-15T02:59:50;6.80;99.90
47521;DHT22;32291;52.010;4.446;2023-04-15T03:00:52;6.80;99.90
47521;DHT22;32291;52.010;4.446;2023-04-15T03:01:54;7.10;99.90
47521;DHT22;32291;52.010;4.446;2023-04-15T03:03:05;6.80;99.90
47521;DHT22;32291;52.010;4.446;2023-04-15T03:04:07;6.80;99.90
47521;DHT22;32291;52.010;4.446;2023-04-15T03:05:13;6.90;99.90
47521;DHT22;32291;52.010;4.446;2023-04-15T03:06:15;6.80;99.90
47521;DHT22;32291;52.010;4.446;2023-04-15T03:07:18;6.80;99.90
47521;DHT22;32291;52.010;4.446;2023-04-15T03:08:20;6.80;99.90
47521;DHT22;32291;52.010;4.446;2023-04-15T03:09:22;6.80;99.90
47521;DHT22;32291;52.010;4.446;2023-04-15T03:10:24;6.90;99.90
47521;DHT22;32291;52.010;4.446;2023-04-15T03:11:27;6.80;99.90
47521;DHT22;32291;52.010;4.446;2023-04-15T03:12:30;6.80;99.90
47521;DHT22;32291;52.010;4.446;2023-04-15T03:13:32;6.90;99.90
47521;DHT22;32291;52.010;4.446;2023-04-15T03:14:34;6.90;99.90
47521;DHT22;32291;52.010;4.446;2023-04-15T03:15:36;6.90;99.90
47521;DHT22;32291;52.010;4.446;2023-04-15T03:16:37;6.90;99.90
47521;DHT22;32291;52.010;4.446;2023-04-15T03:17:39;6.90;99.90
47521;DHT22;32291;52.010;4.446;2023-04-15T03:18:41;7.00;99.90
47521;DHT22;32291;52.010;4.446;2023-04-15T03:19:43;6.80;99.90
47521;DHT22;32291;52.010;4.446;2023-04-15T03:20:46;7.00;99.90
47521;DHT22;32291;52.010;4.446;2023-04-15T03:21:47;6.80;99.90
47521;DHT22;32291;52.010;4.446;2023-04-15T03:22:49;6.80;99.90
47521;DHT22;32291;52.010;4.446;2023-04-15T03:23:52;6.80;99.90
47521;DHT22;32291;52.010;4.446;2023-04-15T03:24:53;6.80;99.90
47521;DHT22;32291;52.010;4.446;2023-04-15T03:25:55;6.80;99.90
47521;DHT22;32291;52.010;4.446;2023-04-15T03:26:58;6.70;99.90
47521;DHT22;32291;52.010;4.446;2023-04-15T03:28:02;6.70;99.90
47521;DHT22;32291;52.010;4.446;2023-04-15T03:29:04;6.70;99.90
47521;DHT22;32291;52.010;4.446;2023-04-15T03:30:07;6.80;99.90
47521;DHT22;32291;52.010;4.446;2023-04-15T03:31:09;6.70;99.90
47521;DHT22;32291;52.010;4.446;2023-04-15T03:32:11;6.70;99.90
47521;DHT22;32291;52.010;4.446;2023-04-15T03:33:13;6.70;99.90
47521;DHT22;32291;52.010;4.446;2023-04-15T03:34:14;6.60;99.90
47521;DHT22;32291;52.010;4.446;2023-04-15T03:35:17;6.60;99.90
47521;DHT22;32291;52.010;4.446;2023-04-15T03:36:19;6.60;99.90
47521;DHT22;32291;52.010;4.446;2023-04-15T03:37:21;6.70;99.90
47521;DHT22;32291;52.010;4.446;2023-04-15T03:38:23;6.50;99.90
47521;DHT22;32291;52.010;4.446;2023-04-15T03:39:26;6.50;99.90
47521;DHT22;32291;52.010;4.446;2023-04-15T03:40:28;6.50;99.90
47521;DHT22;32291;52.010;4.446;2023-04-15T03:41:29;6.40;99.90
47521;DHT22;32291;52.010;4.446;2023-04-15T03:42:31;6.40;99.90
47521;DHT22;32291;52.010;4.446;2023-04-15T03:43:33;6.40;99.90
47521;DHT22;32291;52.010;4.446;2023-04-15T03:44:35;6.40;99.90
47521;DHT22;32291;52.010;4.446;2023-04-15T03:45:37;6.40;99.90
47521;DHT22;32291;52.010;4.446;2023-04-15T03:46:40;6.30;99.90
47521;DHT22;32291;52.010;4.446;2023-04-15T03:47:43;6.30;99.90
47521;DHT22;32291;52.010;4.446;2023-04-15T03:48:46;6.30;99.90
47521;DHT22;32291;52.010;4.446;2023-04-15T03:49:48;6.20;99.90
47521;DHT22;32291;52.010;4.446;2023-04-15T03:50:50;6.20;99.90
47521;DHT22;32291;52.010;4.446;2023-04-15T03:51:52;6.20;99.90
47521;DHT22;32291;52.010;4.446;2023-04-15T03:52:55;6.20;99.90
47521;DHT22;32291;52.010;4.446;2023-04-15T03:53:57;6.20;99.90
47521;DHT22;32291;52.010;4.446;2023-04-15T03:54:59;6.30;99.90
47521;DHT22;32291;52.010;4.446;2023-04-15T03:56:01;6.10;99.90
47521;DHT22;32291;52.010;4.446;2023-04-15T03:57:02;6.10;99.90
47521;DHT22;32291;52.010;4.446;2023-04-15T03:58:04;6.10;99.90
47521;DHT22;32291;52.010;4.446;2023-04-15T03:59:07;6.10;99.90
47521;DHT22;32291;52.010;4.446;2023-04-15T04:00:09;6.10;99.90
47521;DHT22;32291;52.010;4.446;2023-04-15T04:01:11;6.10;99.90
47521;DHT22;32291;52.010;4.446;2023-04-15T04:02:13;6.10;99.90
47521;DHT22;32291;52.010;4.446;2023-04-15T04:03:15;6.10;99.90
47521;DHT22;32291;52.010;4.446;2023-04-15T04:04:18;6.10;99.90
47521;DHT22;32291;52.010;4.446;2023-04-15T04:05:19;6.00;99.90
47521;DHT22;32291;52.010;4.446;2023-04-15T04:06:21;6.00;99.90
47521;DHT22;32291;52.010;4.446;2023-04-15T04:07:24;6.00;99.90
47521;DHT22;32291;52.010;4.446;2023-04-15T04:08:26;6.00;99.90
47521;DHT22;32291;52.010;4.446;2023-04-15T04:09:29;6.00;99.90
47521;DHT22;32291;52.010;4.446;2023-04-15T04:10:31;6.00;99.90
47521;DHT22;32291;52.010;4.446;2023-04-15T04:11:32;5.90;99.90
47521;DHT22;32291;52.010;4.446;2023-04-15T04:12:34;5.90;99.90
47521;DHT22;32291;52.010;4.446;2023-04-15T04:13:36;5.90;99.90
47521;DHT22;32291;52.010;4.446;2023-04-15T04:14:39;5.90;99.90
47521;DHT22;32291;52.010;4.446;2023-04-15T04:15:41;5.90;99.90
47521;DHT22;32291;52.010;4.446;2023-04-15T04:16:43;5.90;99.90
47521;DHT22;32291;52.010;4.446;2023-04-15T04:17:45;5.90;99.90
47521;DHT22;32291;52.010;4.446;2023-04-15T04:18:47;5.80;99.90
47521;DHT22;32291;52.010;4.446;2023-04-15T04:19:49;5.80;99.90
47521;DHT22;32291;52.010;4.446;2023-04-15T04:20:51;5.90;99.90
47521;DHT22;32291;52.010;4.446;2023-04-15T04:21:53;5.80;99.90
47521;DHT22;32291;52.010;4.446;2023-04-15T04:22:56;5.80;99.90
47521;DHT22;32291;52.010;4.446;2023-04-15T04:23:58;5.80;99.90
47521;DHT22;32291;52.010;4.446;2023-04-15T04:25:00;5.90;99.90
47521;DHT22;32291;52.010;4.446;2023-04-15T04:26:03;5.80;99.90
47521;DHT22;32291;52.010;4.446;2023-04-15T04:27:05;5.80;99.90
47521;DHT22;32291;52.010;4.446;2023-04-15T04:28:07;5.80;99.90
47521;DHT22;32291;52.010;4.446;2023-04-15T04:29:09;5.80;99.90
47521;DHT22;32291;52.010;4.446;2023-04-15T04:30:12;5.70;99.90
47521;DHT22;32291;52.010;4.446;2023-04-15T04:31:14;5.70;99.90
47521;DHT22;32291;52.010;4.446;2023-04-15T04:32:17;5.80;99.90
47521;DHT22;32291;52.010;4.446;2023-04-15T04:33:19;5.70;99.90
47521;DHT22;32291;52.010;4.446;2023-04-15T04:34:21;5.80;99.90
47521;DHT22;32291;52.010;4.446;2023-04-15T04:35:23;5.70;99.90
47521;DHT22;32291;52.010;4.446;2023-04-15T04:36:26;5.70;99.90
47521;DHT22;32291;52.010;4.446;2023-04-15T04:37:28;5.70;99.90
47521;DHT22;32291;52.010;4.446;2023-04-15T04:38:30;5.70;99.90
47521;DHT22;32291;52.010;4.446;2023-04-15T04:39:32;5.70;99.90
47521;DHT22;32291;52.010;4.446;2023-04-15T04:40:34;5.70;99.90
47521;DHT22;32291;52.010;4.446;2023-04-15T04:41:37;5.60;99.90
47521;DHT22;32291;52.010;4.446;2023-04-15T04:42:40;5.60;99.90
47521;DHT22;32291;52.010;4.446;2023-04-15T04:43:42;5.60;99.90
47521;DHT22;32291;52.010;4.446;2023-04-15T04:44:44;5.60;99.90
47521;DHT22;32291;52.010;4.446;2023-04-15T04:45:47;5.60;99.90
47521;DHT22;32291;52.010;4.446;2023-04-15T04:46:49;5.60;99.90
47521;DHT22;32291;52.010;4.446;2023-04-15T04:47:52;5.60;99.90
47521;DHT22;32291;52.010;4.446;2023-04-15T04:48:54;5.60;99.90
47521;DHT22;32291;52.010;4.446;2023-04-15T04:49:56;5.60;99.90
47521;DHT22;32291;52.010;4.446;2023-04-15T04:50:58;5.60;99.90
47521;DHT22;32291;52.010;4.446;2023-04-15T04:52:01;5.60;99.90
47521;DHT22;32291;52.010;4.446;2023-04-15T04:53:03;5.60;99.90
47521;DHT22;32291;52.010;4.446;2023-04-15T04:54:09;5.60;99.90
47521;DHT22;32291;52.010;4.446;2023-04-15T04:55:13;5.60;99.90
47521;DHT22;32291;52.010;4.446;2023-04-15T04:56:16;5.60;99.90
47521;DHT22;32291;52.010;4.446;2023-04-15T04:57:19;5.60;99.90
47521;DHT22;32291;52.010;4.446;2023-04-15T04:58:21;5.60;99.90
47521;DHT22;32291;52.010;4.446;2023-04-15T04:59:24;5.60;99.90
47521;DHT22;32291;52.010;4.446;2023-04-15T05:00:26;5.60;99.90
47521;DHT22;32291;52.010;4.446;2023-04-15T05:01:28;5.60;99.90
47521;DHT22;32291;52.010;4.446;2023-04-15T05:02:31;5.60;99.90
47521;DHT22;32291;52.010;4.446;2023-04-15T05:03:34;5.60;99.90
47521;DHT22;32291;52.010;4.446;2023-04-15T05:04:36;5.80;99.90
47521;DHT22;32291;52.010;4.446;2023-04-15T05:05:38;5.60;99.90
47521;DHT22;32291;52.010;4.446;2023-04-15T05:06:41;5.60;99.90
47521;DHT22;32291;52.010;4.446;2023-04-15T05:07:43;5.60;99.90
47521;DHT22;32291;52.010;4.446;2023-04-15T05:08:46;5.60;99.90
47521;DHT22;32291;52.010;4.446;2023-04-15T05:09:49;5.60;99.90
47521;DHT22;32291;52.010;4.446;2023-04-15T05:10:51;5.60;99.90
47521;DHT22;32291;52.010;4.446;2023-04-15T05:11:53;5.60;99.90
47521;DHT22;32291;52.010;4.446;2023-04-15T05:12:57;5.60;99.90
47521;DHT22;32291;52.010;4.446;2023-04-15T05:13:59;5.60;99.90
47521;DHT22;32291;52.010;4.446;2023-04-15T05:15:03;5.60;99.90
47521;DHT22;32291;52.010;4.446;2023-04-15T05:16:06;5.40;99.90
47521;DHT22;32291;52.010;4.446;2023-04-15T05:17:09;5.70;99.90
47521;DHT22;32291;52.010;4.446;2023-04-15T05:18:11;5.70;99.90
47521;DHT22;32291;52.010;4.446;2023-04-15T05:19:14;5.70;99.90
47521;DHT22;32291;52.010;4.446;2023-04-15T05:20:16;5.70;99.90
47521;DHT22;32291;52.010;4.446;2023-04-15T05:21:19;5.70;99.90
47521;DHT22;32291;52.010;4.446;2023-04-15T05:22:21;5.70;99.90
47521;DHT22;32291;52.010;4.446;2023-04-15T05:23:24;5.70;99.90
47521;DHT22;32291;52.010;4.446;2023-04-15T05:24:27;5.70;99.90
47521;DHT22;32291;52.010;4.446;2023-04-15T05:25:29;5.70;99.90
47521;DHT22;32291;52.010;4.446;2023-04-15T05:26:32;5.70;99.90
47521;DHT22;32291;52.010;4.446;2023-04-15T05:27:34;5.70;99.90
47521;DHT22;32291;52.010;4.446;2023-04-15T05:28:37;5.70;99.90
47521;DHT22;32291;52.010;4.446;2023-04-15T05:29:40;5.70;99.90
47521;DHT22;32291;52.010;4.446;2023-04-15T05:30:43;5.80;99.90
47521;DHT22;32291;52.010;4.446;2023-04-15T05:31:52;5.80;99.90
47521;DHT22;32291;52.010;4.446;2023-04-15T05:32:54;5.80;99.90
47521;DHT22;32291;52.010;4.446;2023-04-15T05:33:56;5.80;99.90
47521;DHT22;32291;52.010;4.446;2023-04-15T05:34:59;5.80;99.90
47521;DHT22;32291;52.010;4.446;2023-04-15T05:36:02;5.80;99.90
47521;DHT22;32291;52.010;4.446;2023-04-15T05:37:04;5.80;99.90
47521;DHT22;32291;52.010;4.446;2023-04-15T05:38:06;5.90;99.90
47521;DHT22;32291;52.010;4.446;2023-04-15T05:39:09;5.90;99.90
47521;DHT22;32291;52.010;4.446;2023-04-15T05:40:12;5.90;99.90
47521;DHT22;32291;52.010;4.446;2023-04-15T05:41:15;5.90;99.90
47521;DHT22;32291;52.010;4.446;2023-04-15T05:42:18;5.90;99.90
47521;DHT22;32291;52.010;4.446;2023-04-15T05:43:20;6.00;99.90
47521;DHT22;32291;52.010;4.446;2023-04-15T05:44:22;6.00;99.90
47521;DHT22;32291;52.010;4.446;2023-04-15T05:45:24;6.00;99.90
47521;DHT22;32291;52.010;4.446;2023-04-15T05:46:26;6.00;99.90
47521;DHT22;32291;52.010;4.446;2023-04-15T05:47:29;6.00;99.90
47521;DHT22;32291;52.010;4.446;2023-04-15T05:48:32;6.10;99.90
47521;DHT22;32291;52.010;4.446;2023-04-15T05:49:34;6.10;99.90
47521;DHT22;32291;52.010;4.446;2023-04-15T05:50:36;6.10;99.90
47521;DHT22;32291;52.010;4.446;2023-04-15T05:51:38;6.10;99.90
47521;DHT22;32291;52.010;4.446;2023-04-15T05:52:41;6.20;99.90
47521;DHT22;32291;52.010;4.446;2023-04-15T05:53:44;6.20;99.90
47521;DHT22;32291;52.010;4.446;2023-04-15T05:54:46;6.20;99.90
47521;DHT22;32291;52.010;4.446;2023-04-15T05:55:48;6.30;99.90
47521;DHT22;32291;52.010;4.446;2023-04-15T05:56:50;6.30;99.90
47521;DHT22;32291;52.010;4.446;2023-04-15T05:57:53;6.30;99.90
47521;DHT22;32291;52.010;4.446;2023-04-15T05:58:55;6.40;99.90
47521;DHT22;32291;52.010;4.446;2023-04-15T05:59:57;6.40;99.90
47521;DHT22;32291;52.010;4.446;2023-04-15T06:00:59;6.50;99.90
47521;DHT22;32291;52.010;4.446;2023-04-15T06:02:02;6.50;99.90
47521;DHT22;32291;52.010;4.446;2023-04-15T06:03:04;6.50;99.90
47521;DHT22;32291;52.010;4.446;2023-04-15T06:04:07;6.60;99.90
47521;DHT22;32291;52.010;4.446;2023-04-15T06:05:10;6.60;99.90
47521;DHT22;32291;52.010;4.446;2023-04-15T06:06:12;6.70;99.90
47521;DHT22;32291;52.010;4.446;2023-04-15T06:07:14;6.70;99.90
47521;DHT22;32291;52.010;4.446;2023-04-15T06:08:16;6.70;99.90
47521;DHT22;32291;52.010;4.446;2023-04-15T06:09:19;6.70;99.90
47521;DHT22;32291;52.010;4.446;2023-04-15T06:10:22;6.80;99.90
47521;DHT22;32291;52.010;4.446;2023-04-15T06:11:25;6.80;99.90
47521;DHT22;32291;52.010;4.446;2023-04-15T06:12:28;6.90;99.90
47521;DHT22;32291;52.010;4.446;2023-04-15T06:13:30;6.90;99.90
47521;DHT22;32291;52.010;4.446;2023-04-15T06:14:32;6.90;99.90
47521;DHT22;32291;52.010;4.446;2023-04-15T06:15:34;6.90;99.90
47521;DHT22;32291;52.010;4.446;2023-04-15T06:16:37;7.00;99.90
47521;DHT22;32291;52.010;4.446;2023-04-15T06:17:39;7.00;99.90
47521;DHT22;32291;52.010;4.446;2023-04-15T06:18:42;7.10;99.90
47521;DHT22;32291;52.010;4.446;2023-04-15T06:19:44;7.10;99.90
47521;DHT22;32291;52.010;4.446;2023-04-15T06:20:46;7.20;99.90
47521;DHT22;32291;52.010;4.446;2023-04-15T06:21:49;7.20;99.90
47521;DHT22;32291;52.010;4.446;2023-04-15T06:22:51;7.30;99.90
47521;DHT22;32291;52.010;4.446;2023-04-15T06:23:54;7.30;99.90
47521;DHT22;32291;52.010;4.446;2023-04-15T06:24:57;7.40;99.90
47521;DHT22;32291;52.010;4.446;2023-04-15T06:25:59;7.40;99.90
47521;DHT22;32291;52.010;4.446;2023-04-15T06:27:02;7.50;99.90
47521;DHT22;32291;52.010;4.446;2023-04-15T06:28:04;7.50;99.90
47521;DHT22;32291;52.010;4.446;2023-04-15T06:29:06;7.50;99.90
47521;DHT22;32291;52.010;4.446;2023-04-15T06:30:09;7.60;99.90
47521;DHT22;32291;52.010;4.446;2023-04-15T06:31:11;7.60;99.90
47521;DHT22;32291;52.010;4.446;2023-04-15T06:32:13;7.70;99.90
47521;DHT22;32291;52.010;4.446;2023-04-15T06:33:15;7.70;99.90
47521;DHT22;32291;52.010;4.446;2023-04-15T06:34:17;7.70;99.90
47521;DHT22;32291;52.010;4.446;2023-04-15T06:35:19;7.80;99.90
47521;DHT22;32291;52.010;4.446;2023-04-15T06:36:21;7.80;99.90
47521;DHT22;32291;52.010;4.446;2023-04-15T06:37:24;7.90;99.90
47521;DHT22;32291;52.010;4.446;2023-04-15T06:38:27;7.90;99.90
47521;DHT22;32291;52.010;4.446;2023-04-15T06:39:29;7.90;99.90
47521;DHT22;32291;52.010;4.446;2023-04-15T06:40:31;8.00;99.90
47521;DHT22;32291;52.010;4.446;2023-04-15T06:41:33;8.00;99.90